首页
METAR-TAF:

METAR-TAF

机场 :

Portland-Troutdale Airport

Troutdale, 俄勒冈州, 美国

纬度: 45-33-04N, 经度: 122-24-32W, 海拔: 11米

当前天气观测

该预报发布于19分钟前的21:53 UTC
风速12节,风向
温度 7°C
湿度 81%
气压 1016 hPa
能見度: 16.1公里
阴天层高于5500英尺
小雨

METAR: KTTD 112153Z 08012KT 10SM -RA OVC055 07/04 A3000 RMK AO2 SLP158 P0001 T00670044

时间: 14:12 (22:12 UTC)

预报

该预报发布于1小时和12分钟前的21:00 UTC
预报有效从11日的 21点(UTC)到 12日的 18点(UTC)
风速10节,风向
能見度: 10公里
少量云层高于3500英尺
多云层高于5000英尺
阴天层高于7000英尺
小雨
短暂存在
从 12日的 01点(UTC)到 12日的 03点(UTC)
能見度: 3.2公里
阴天层高于2500英尺
小雨
从 12日的 0300点(UTC)
风速9节,风向东南
能見度: 8.0公里
阴天层高于2100英尺
从 12日的 0600点(UTC)
风速8节,风向
能見度: 10公里
阴天层高于1400英尺
小雨
从 12日的 0700点(UTC)
风速8节,风向
能見度: 10公里
阴天层高于3500英尺
小雨
从 12日的 0900点(UTC)
风速9节,风向南转西南
能見度: 10公里
多云层高于1600英尺
小雨

TAF: KTTD 112100Z 1121/1218 09010KT P6SM -RA FEW035 BKN050 OVC070 TEMPO 1201/1203 2SM -RA OVC025 FM120300 13009KT 5SM RA OVC021 WS020/20035KT FM120600 19008KT P6SM -RA OVC014 WS020/22035KT FM120700 19008KT P6SM -RA OVC035 FM120900 20009KT P6SM -RA BKN016

超过4000个机场的气象观测和天气预报(METAR&TAF报告)。

可查询的气象台以黄色和红色小点在地图上表示。

将鼠标移到小点上方,可查看气象台名称。

然后点击查看天气观测和预报。

如需切换地图:点击带黑十字的绿色按钮放大地图;点击带横线的绿色按钮缩小地图;或者点击绿色箭头查看邻近地区的地图。


METAR-TAF: